Angostura, New Mexico
Current Conditions -  °F | °C
As of 11:15 AM on Monday 26 Jan 2015 (Local Time) from KSKX Reporting Station
Clear Clear  
Wind Chill:   Ceiling: Unl
Heat Index:   Visibility: 10mi
Dew Point: -4°   Wind: 6mph
Humidity: 43%   Direction: 340°NNW
Pressure: 30.43"   Gusts: NA
Location:  36.1892°N, 105.688°W
Report Text: KSKX 261815Z AUTO 34005KT 10SM CLR 08/M04 A3043 RMK AO1
Loading
Personal Weather Stations






























Interactive Weather Map New forecast layout! Learn more

10-Day Weather Forecast

Advertisements
Track Severe Weather on mobile